sensor_id;sensor_type;location;lat;lon;timestamp;pressure;altitude;pressure_sealevel;temperature;humidity
51313;BME280;37397;53.226;10.400;2023-05-25T00:01:35;102026.38;;;14.79;57.38
51313;BME280;37397;53.226;10.400;2023-05-25T00:04:02;102031.34;;;14.78;57.43
51313;BME280;37397;53.226;10.400;2023-05-25T00:06:31;102031.34;;;14.78;57.42
51313;BME280;37397;53.226;10.400;2023-05-25T00:08:58;102031.81;;;14.76;57.41
51313;BME280;37397;53.226;10.400;2023-05-25T00:11:25;102033.88;;;14.76;57.50
51313;BME280;37397;53.226;10.400;2023-05-25T00:13:52;102033.09;;;14.75;57.52
51313;BME280;37397;53.226;10.400;2023-05-25T00:16:19;102027.03;;;14.73;57.59
51313;BME280;37397;53.226;10.400;2023-05-25T00:18:46;102027.03;;;14.73;57.52
51313;BME280;37397;53.226;10.400;2023-05-25T00:21:14;102025.44;;;14.72;57.65
51313;BME280;37397;53.226;10.400;2023-05-25T00:23:41;102020.94;;;14.71;57.54
51313;BME280;37397;53.226;10.400;2023-05-25T00:26:08;102028.47;;;14.69;57.66
51313;BME280;37397;53.226;10.400;2023-05-25T00:28:35;102029.25;;;14.69;57.55
51313;BME280;37397;53.226;10.400;2023-05-25T00:31:01;102028.47;;;14.69;57.58
51313;BME280;37397;53.226;10.400;2023-05-25T00:33:28;102026.09;;;14.67;57.63
51313;BME280;37397;53.226;10.400;2023-05-25T00:35:55;102023.38;;;14.64;57.66
51313;BME280;37397;53.226;10.400;2023-05-25T00:38:22;102026.25;;;14.64;57.61
51313;BME280;37397;53.226;10.400;2023-05-25T00:40:54;102020.50;;;14.64;57.41
51313;BME280;37397;53.226;10.400;2023-05-25T00:43:21;102023.03;;;14.62;57.57
51313;BME280;37397;53.226;10.400;2023-05-25T00:45:49;102027.22;;;14.61;57.62
51313;BME280;37397;53.226;10.400;2023-05-25T00:48:17;102025.59;;;14.59;57.61
51313;BME280;37397;53.226;10.400;2023-05-25T00:50:43;102021.91;;;14.59;57.49
51313;BME280;37397;53.226;10.400;2023-05-25T00:53:12;102013.47;;;14.55;57.72
51313;BME280;37397;53.226;10.400;2023-05-25T00:55:52;102020.16;;;14.52;57.82
51313;BME280;37397;53.226;10.400;2023-05-25T00:58:21;102015.69;;;14.51;57.82
51313;BME280;37397;53.226;10.400;2023-05-25T01:00:49;102021.13;;;14.49;57.87
51313;BME280;37397;53.226;10.400;2023-05-25T01:03:19;102022.69;;;14.50;57.70
51313;BME280;37397;53.226;10.400;2023-05-25T01:05:50;102028.13;;;14.48;57.82
51313;BME280;37397;53.226;10.400;2023-05-25T01:08:19;102035.16;;;14.47;58.02
51313;BME280;37397;53.226;10.400;2023-05-25T01:10:47;102027.84;;;14.46;57.95
51313;BME280;37397;53.226;10.400;2023-05-25T01:13:16;102033.56;;;14.46;57.80
51313;BME280;37397;53.226;10.400;2023-05-25T01:15:44;102028.78;;;14.43;57.99
51313;BME280;37397;53.226;10.400;2023-05-25T01:18:13;102041.06;;;14.44;58.06
51313;BME280;37397;53.226;10.400;2023-05-25T01:20:58;102038.34;;;14.40;57.81
51313;BME280;37397;53.226;10.400;2023-05-25T01:23:42;102048.25;;;14.39;57.93
51313;BME280;37397;53.226;10.400;2023-05-25T01:26:13;102040.09;;;14.37;58.19
51313;BME280;37397;53.226;10.400;2023-05-25T01:28:50;102036.13;;;14.35;57.96
51313;BME280;37397;53.226;10.400;2023-05-25T01:31:20;102034.53;;;14.34;58.03
51313;BME280;37397;53.226;10.400;2023-05-25T01:33:49;102037.41;;;14.34;58.07
51313;BME280;37397;53.226;10.400;2023-05-25T01:36:18;102036.59;;;14.33;58.03
51313;BME280;37397;53.226;10.400;2023-05-25T01:38:44;102041.53;;;14.33;58.14
51313;BME280;37397;53.226;10.400;2023-05-25T01:41:11;102038.34;;;14.31;58.11
51313;BME280;37397;53.226;10.400;2023-05-25T01:43:38;102032.28;;;14.29;58.12
51313;BME280;37397;53.226;10.400;2023-05-25T01:46:17;102033.56;;;14.28;58.19
51313;BME280;37397;53.226;10.400;2023-05-25T01:48:55;102032.47;;;14.25;58.15
51313;BME280;37397;53.226;10.400;2023-05-25T01:51:36;102025.59;;;14.22;57.90
51313;BME280;37397;53.226;10.400;2023-05-25T01:54:20;102028.47;;;14.22;57.93
51313;BME280;37397;53.226;10.400;2023-05-25T01:56:49;102028.16;;;14.20;58.32
51313;BME280;37397;53.226;10.400;2023-05-25T01:59:19;102026.53;;;14.19;58.27
51313;BME280;37397;53.226;10.400;2023-05-25T02:01:50;102036.44;;;14.18;58.14
51313;BME280;37397;53.226;10.400;2023-05-25T02:04:19;102033.59;;;14.18;58.05
51313;BME280;37397;53.226;10.400;2023-05-25T02:06:48;102040.59;;;14.17;58.28
51313;BME280;37397;53.226;10.400;2023-05-25T02:09:17;102025.91;;;14.15;58.32
51313;BME280;37397;53.226;10.400;2023-05-25T02:11:43;102035.00;;;14.14;58.29
51313;BME280;37397;53.226;10.400;2023-05-25T02:14:10;102034.53;;;14.15;58.33
51313;BME280;37397;53.226;10.400;2023-05-25T02:16:36;102031.00;;;14.11;58.37
51313;BME280;37397;53.226;10.400;2023-05-25T02:19:03;102034.19;;;14.13;58.36
51313;BME280;37397;53.226;10.400;2023-05-25T02:21:29;102035.97;;;14.11;58.50
51313;BME280;37397;53.226;10.400;2023-05-25T02:23:56;102038.34;;;14.12;58.37
51313;BME280;37397;53.226;10.400;2023-05-25T02:26:23;102031.00;;;14.11;58.37
51313;BME280;37397;53.226;10.400;2023-05-25T02:28:50;102031.47;;;14.10;58.47
51313;BME280;37397;53.226;10.400;2023-05-25T02:31:17;102022.56;;;14.08;58.58
51313;BME280;37397;53.226;10.400;2023-05-25T02:33:45;102020.47;;;14.08;58.70
51313;BME280;37397;53.226;10.400;2023-05-25T02:36:11;102026.22;;;14.08;58.66
51313;BME280;37397;53.226;10.400;2023-05-25T02:38:40;102028.47;;;14.04;58.68
51313;BME280;37397;53.226;10.400;2023-05-25T02:41:07;102023.03;;;14.06;58.89
51313;BME280;37397;53.226;10.400;2023-05-25T02:43:33;102026.06;;;14.02;58.83
51313;BME280;37397;53.226;10.400;2023-05-25T02:46:00;102042.00;;;14.03;59.05
51313;BME280;37397;53.226;10.400;2023-05-25T02:48:26;102037.06;;;14.04;58.95
51313;BME280;37397;53.226;10.400;2023-05-25T02:50:52;102027.34;;;14.01;58.83
51313;BME280;37397;53.226;10.400;2023-05-25T02:53:19;102031.34;;;14.04;58.69
51313;BME280;37397;53.226;10.400;2023-05-25T02:55:46;102033.84;;;14.02;58.70
51313;BME280;37397;53.226;10.400;2023-05-25T02:58:17;102030.69;;;14.00;58.99
51313;BME280;37397;53.226;10.400;2023-05-25T03:00:57;102040.91;;;14.01;59.03
51313;BME280;37397;53.226;10.400;2023-05-25T03:03:27;102038.03;;;14.01;58.86
51313;BME280;37397;53.226;10.400;2023-05-25T03:05:55;102040.56;;;13.99;59.08
51313;BME280;37397;53.226;10.400;2023-05-25T03:08:22;102042.16;;;14.00;59.12
51313;BME280;37397;53.226;10.400;2023-05-25T03:10:49;102036.56;;;13.96;59.34
51313;BME280;37397;53.226;10.400;2023-05-25T03:13:16;102038.16;;;13.97;59.21
51313;BME280;37397;53.226;10.400;2023-05-25T03:15:43;102040.22;;;13.97;59.04
51313;BME280;37397;53.226;10.400;2023-05-25T03:18:09;102048.84;;;13.97;59.07
51313;BME280;37397;53.226;10.400;2023-05-25T03:20:37;102042.31;;;13.96;58.94
51313;BME280;37397;53.226;10.400;2023-05-25T03:23:04;102034.19;;;13.95;58.83
51313;BME280;37397;53.226;10.400;2023-05-25T03:25:32;102042.78;;;13.95;59.00
51313;BME280;37397;53.226;10.400;2023-05-25T03:28:01;102038.31;;;13.94;59.25
51313;BME280;37397;53.226;10.400;2023-05-25T03:30:28;102051.09;;;13.93;59.30
51313;BME280;37397;53.226;10.400;2023-05-25T03:32:56;102044.88;;;13.94;59.29
51313;BME280;37397;53.226;10.400;2023-05-25T03:35:25;102043.28;;;13.93;59.27
51313;BME280;37397;53.226;10.400;2023-05-25T03:37:52;102041.66;;;13.92;59.40
51313;BME280;37397;53.226;10.400;2023-05-25T03:40:18;102052.34;;;13.92;59.21
51313;BME280;37397;53.226;10.400;2023-05-25T03:42:45;102048.69;;;13.91;59.48
51313;BME280;37397;53.226;10.400;2023-05-25T03:45:12;102043.75;;;13.92;59.44
51313;BME280;37397;53.226;10.400;2023-05-25T03:47:39;102052.34;;;13.92;59.30
51313;BME280;37397;53.226;10.400;2023-05-25T03:50:06;102056.47;;;13.91;59.29
51313;BME280;37397;53.226;10.400;2023-05-25T03:52:33;102050.75;;;13.91;59.36
51313;BME280;37397;53.226;10.400;2023-05-25T03:55:01;102047.88;;;13.91;59.06
51313;BME280;37397;53.226;10.400;2023-05-25T03:57:29;102054.91;;;13.90;59.24
51313;BME280;37397;53.226;10.400;2023-05-25T03:59:57;102054.09;;;13.89;59.32
51313;BME280;37397;53.226;10.400;2023-05-25T04:02:24;102062.69;;;13.89;59.46
51313;BME280;37397;53.226;10.400;2023-05-25T04:04:50;102057.78;;;13.90;59.50
51313;BME280;37397;53.226;10.400;2023-05-25T04:07:18;102055.50;;;13.84;59.56
51313;BME280;37397;53.226;10.400;2023-05-25T04:09:45;102063.16;;;13.88;59.55
51313;BME280;37397;53.226;10.400;2023-05-25T04:12:12;102066.03;;;13.88;59.80
51313;BME280;37397;53.226;10.400;2023-05-25T04:14:38;102067.34;;;13.86;59.79
51313;BME280;37397;53.226;10.400;2023-05-25T04:17:05;102073.06;;;13.86;59.80
51313;BME280;37397;53.226;10.400;2023-05-25T04:19:31;102079.59;;;13.87;60.04
51313;BME280;37397;53.226;10.400;2023-05-25T04:21:58;102088.69;;;13.85;59.72
51313;BME280;37397;53.226;10.400;2023-05-25T04:24:25;102081.34;;;13.84;60.00
51313;BME280;37397;53.226;10.400;2023-05-25T04:26:54;102083.72;;;13.86;59.99
51313;BME280;37397;53.226;10.400;2023-05-25T04:29:22;102084.19;;;13.84;60.04
51313;BME280;37397;53.226;10.400;2023-05-25T04:32:07;102081.00;;;13.82;59.96
51313;BME280;37397;53.226;10.400;2023-05-25T04:34:46;102085.19;;;13.81;59.89
51313;BME280;37397;53.226;10.400;2023-05-25T04:37:19;102085.50;;;13.83;60.19
51313;BME280;37397;53.226;10.400;2023-05-25T04:39:48;102088.03;;;13.81;60.13
51313;BME280;37397;53.226;10.400;2023-05-25T04:46:26;102099.31;;;13.76;60.50
51313;BME280;37397;53.226;10.400;2023-05-25T04:48:52;102104.59;;;13.77;60.49
51313;BME280;37397;53.226;10.400;2023-05-25T04:51:19;102106.22;;;13.78;60.38
51313;BME280;37397;53.226;10.400;2023-05-25T04:53:46;102103.00;;;13.76;60.43
51313;BME280;37397;53.226;10.400;2023-05-25T04:56:12;102105.84;;;13.76;60.57
51313;BME280;37397;53.226;10.400;2023-05-25T04:58:39;102101.72;;;13.77;60.63
51313;BME280;37397;53.226;10.400;2023-05-25T05:01:07;102108.25;;;13.78;60.63
51313;BME280;37397;53.226;10.400;2023-05-25T05:03:35;102114.81;;;13.78;60.93
51313;BME280;37397;53.226;10.400;2023-05-25T05:06:02;102108.72;;;13.76;60.50
51313;BME280;37397;53.226;10.400;2023-05-25T05:08:30;102106.69;;;13.77;60.50
51313;BME280;37397;53.226;10.400;2023-05-25T05:10:57;102117.69;;;13.78;60.52
51313;BME280;37397;53.226;10.400;2023-05-25T05:13:25;102123.41;;;13.78;60.64
51313;BME280;37397;53.226;10.400;2023-05-25T05:15:52;102116.06;;;13.77;60.70
51313;BME280;37397;53.226;10.400;2023-05-25T05:18:19;102122.28;;;13.76;60.68
51313;BME280;37397;53.226;10.400;2023-05-25T05:20:46;102123.88;;;13.77;60.86
51313;BME280;37397;53.226;10.400;2023-05-25T05:23:12;102128.81;;;13.76;60.71
51313;BME280;37397;53.226;10.400;2023-05-25T05:25:39;102134.91;;;13.78;60.62
51313;BME280;37397;53.226;10.400;2023-05-25T05:28:05;102128.81;;;13.76;60.64
51313;BME280;37397;53.226;10.400;2023-05-25T05:30:38;102133.28;;;13.77;60.59
51313;BME280;37397;53.226;10.400;2023-05-25T05:33:04;102129.63;;;13.77;60.71
51313;BME280;37397;53.226;10.400;2023-05-25T05:35:37;102131.69;;;13.76;60.65
51313;BME280;37397;53.226;10.400;2023-05-25T05:38:08;102132.50;;;13.77;60.78
51313;BME280;37397;53.226;10.400;2023-05-25T05:40:35;102134.91;;;13.78;60.90
51313;BME280;37397;53.226;10.400;2023-05-25T05:43:01;102137.75;;;13.78;60.61
51313;BME280;37397;53.226;10.400;2023-05-25T05:45:28;102140.63;;;13.78;60.59
51313;BME280;37397;53.226;10.400;2023-05-25T05:47:54;102142.22;;;13.79;60.81
51313;BME280;37397;53.226;10.400;2023-05-25T05:50:21;102136.16;;;13.77;60.93
51313;BME280;37397;53.226;10.400;2023-05-25T05:52:48;102139.81;;;13.78;60.96
51313;BME280;37397;53.226;10.400;2023-05-25T05:55:14;102146.38;;;13.78;60.82
51313;BME280;37397;53.226;10.400;2023-05-25T05:57:42;102135.84;;;13.75;60.52
51313;BME280;37397;53.226;10.400;2023-05-25T06:00:09;102137.41;;;13.76;60.60
51313;BME280;37397;53.226;10.400;2023-05-25T06:02:42;102152.13;;;13.78;60.77
51313;BME280;37397;53.226;10.400;2023-05-25T06:05:13;102147.31;;;13.75;60.67
51313;BME280;37397;53.226;10.400;2023-05-25T06:07:41;102150.97;;;13.76;60.87
51313;BME280;37397;53.226;10.400;2023-05-25T06:10:08;102154.63;;;13.76;61.00
51313;BME280;37397;53.226;10.400;2023-05-25T06:12:35;102158.78;;;13.75;61.24
51313;BME280;37397;53.226;10.400;2023-05-25T06:15:02;102168.66;;;13.74;61.06
51313;BME280;37397;53.226;10.400;2023-05-25T06:17:29;102165.78;;;13.74;61.09
51313;BME280;37397;53.226;10.400;2023-05-25T06:19:56;102168.34;;;13.72;61.11
51313;BME280;37397;53.226;10.400;2023-05-25T06:22:23;102168.34;;;13.72;60.76
51313;BME280;37397;53.226;10.400;2023-05-25T06:24:54;102171.22;;;13.72;61.12
51313;BME280;37397;53.226;10.400;2023-05-25T06:27:21;102166.72;;;13.71;61.07
51313;BME280;37397;53.226;10.400;2023-05-25T06:29:51;102169.13;;;13.73;60.92
51313;BME280;37397;53.226;10.400;2023-05-25T06:32:18;102177.25;;;13.74;60.84
51313;BME280;37397;53.226;10.400;2023-05-25T06:34:45;102176.47;;;13.74;61.06
51313;BME280;37397;53.226;10.400;2023-05-25T06:37:13;102177.25;;;13.74;60.96
51313;BME280;37397;53.226;10.400;2023-05-25T06:39:41;102180.13;;;13.74;61.00
51313;BME280;37397;53.226;10.400;2023-05-25T06:42:09;102183.94;;;13.71;61.24
51313;BME280;37397;53.226;10.400;2023-05-25T06:44:47;102184.25;;;13.73;61.00
51313;BME280;37397;53.226;10.400;2023-05-25T06:47:14;102190.00;;;13.73;61.12
51313;BME280;37397;53.226;10.400;2023-05-25T06:49:40;102191.59;;;13.74;61.08
51313;BME280;37397;53.226;10.400;2023-05-25T06:52:07;102193.22;;;13.75;61.01
51313;BME280;37397;53.226;10.400;2023-05-25T06:54:33;102189.53;;;13.75;61.02
51313;BME280;37397;53.226;10.400;2023-05-25T06:57:00;102198.97;;;13.75;60.80
51313;BME280;37397;53.226;10.400;2023-05-25T06:59:26;102203.41;;;13.76;60.84
51313;BME280;37397;53.226;10.400;2023-05-25T07:01:53;102199.75;;;13.76;60.84
51313;BME280;37397;53.226;10.400;2023-05-25T07:04:21;102202.16;;;13.77;60.95
51313;BME280;37397;53.226;10.400;2023-05-25T07:06:48;102198.03;;;13.78;60.88
51313;BME280;37397;53.226;10.400;2023-05-25T07:09:14;102194.34;;;13.78;60.84
51313;BME280;37397;53.226;10.400;2023-05-25T07:11:42;102195.16;;;13.78;60.81
51313;BME280;37397;53.226;10.400;2023-05-25T07:14:09;102200.41;;;13.80;60.83
51313;BME280;37397;53.226;10.400;2023-05-25T07:16:35;102190.53;;;13.81;60.92
51313;BME280;37397;53.226;10.400;2023-05-25T07:19:02;102202.81;;;13.81;60.84
51313;BME280;37397;53.226;10.400;2023-05-25T07:21:32;102199.59;;;13.79;60.66
51313;BME280;37397;53.226;10.400;2023-05-25T07:23:58;102198.66;;;13.82;60.72
51313;BME280;37397;53.226;10.400;2023-05-25T07:26:25;102195.00;;;13.82;60.68
51313;BME280;37397;53.226;10.400;2023-05-25T07:28:53;102200.28;;;13.83;60.68
51313;BME280;37397;53.226;10.400;2023-05-25T07:31:19;102206.66;;;13.88;60.70
51313;BME280;37397;53.226;10.400;2023-05-25T07:33:46;102201.72;;;13.88;60.76
51313;BME280;37397;53.226;10.400;2023-05-25T07:36:13;102200.44;;;13.89;61.11
51313;BME280;37397;53.226;10.400;2023-05-25T07:38:39;102202.53;;;13.89;60.90
51313;BME280;37397;53.226;10.400;2023-05-25T07:41:06;102208.09;;;13.92;60.90
51313;BME280;37397;53.226;10.400;2023-05-25T07:43:33;102199.03;;;13.94;60.80
51313;BME280;37397;53.226;10.400;2023-05-25T07:45:59;102188.50;;;13.91;61.04
51313;BME280;37397;53.226;10.400;2023-05-25T07:48:27;102202.09;;;13.99;61.01
51313;BME280;37397;53.226;10.400;2023-05-25T07:50:54;102206.06;;;14.02;60.95
51313;BME280;37397;53.226;10.400;2023-05-25T07:53:21;102211.03;;;14.01;60.88
51313;BME280;37397;53.226;10.400;2023-05-25T07:55:47;102215.34;;;14.06;61.13
51313;BME280;37397;53.226;10.400;2023-05-25T07:58:14;102214.09;;;14.07;60.67
51313;BME280;37397;53.226;10.400;2023-05-25T08:00:40;102215.22;;;14.10;60.98
51313;BME280;37397;53.226;10.400;2023-05-25T08:03:07;102209.00;;;14.11;60.74
51313;BME280;37397;53.226;10.400;2023-05-25T08:05:34;102200.69;;;14.13;60.73
51313;BME280;37397;53.226;10.400;2023-05-25T08:08:01;102205.50;;;14.16;60.95
51313;BME280;37397;53.226;10.400;2023-05-25T08:10:27;102205.38;;;14.20;60.80
51313;BME280;37397;53.226;10.400;2023-05-25T08:12:57;102210.97;;;14.23;60.89
51313;BME280;37397;53.226;10.400;2023-05-25T08:15:25;102210.97;;;14.23;60.94
51313;BME280;37397;53.226;10.400;2023-05-25T08:17:52;102204.28;;;14.27;60.77
51313;BME280;37397;53.226;10.400;2023-05-25T08:20:18;102206.53;;;14.32;60.87
51313;BME280;37397;53.226;10.400;2023-05-25T08:22:45;102207.63;;;14.34;60.82
51313;BME280;37397;53.226;10.400;2023-05-25T08:25:12;102209.53;;;14.37;61.13
51313;BME280;37397;53.226;10.400;2023-05-25T08:27:38;102205.41;;;14.38;61.17
51313;BME280;37397;53.226;10.400;2023-05-25T08:30:05;102208.47;;;14.44;61.28
51313;BME280;37397;53.226;10.400;2023-05-25T08:32:32;102214.06;;;14.48;61.43
51313;BME280;37397;53.226;10.400;2023-05-25T08:34:59;102220.13;;;14.50;61.28
51313;BME280;37397;53.226;10.400;2023-05-25T08:37:27;102199.53;;;14.51;61.13
51313;BME280;37397;53.226;10.400;2023-05-25T08:39:54;102216.94;;;14.57;61.23
51313;BME280;37397;53.226;10.400;2023-05-25T08:42:21;102211.41;;;14.63;61.09
51313;BME280;37397;53.226;10.400;2023-05-25T08:44:48;102220.69;;;14.67;61.04
51313;BME280;37397;53.226;10.400;2023-05-25T08:47:15;102212.84;;;14.67;61.20
51313;BME280;37397;53.226;10.400;2023-05-25T08:49:43;102218.75;;;14.73;61.10
51313;BME280;37397;53.226;10.400;2023-05-25T08:52:13;102223.88;;;14.78;61.06
51313;BME280;37397;53.226;10.400;2023-05-25T08:54:43;102221.63;;;14.82;61.09
51313;BME280;37397;53.226;10.400;2023-05-25T08:57:22;102225.66;;;14.85;60.88
51313;BME280;37397;53.226;10.400;2023-05-25T09:00:07;102218.13;;;14.87;60.76
51313;BME280;37397;53.226;10.400;2023-05-25T09:02:53;102222.91;;;14.90;60.55
51313;BME280;37397;53.226;10.400;2023-05-25T09:05:23;102224.38;;;14.95;60.58
51313;BME280;37397;53.226;10.400;2023-05-25T09:07:49;102218.44;;;14.99;60.57
51313;BME280;37397;53.226;10.400;2023-05-25T09:10:24;102229.00;;;15.02;60.58
51313;BME280;37397;53.226;10.400;2023-05-25T09:12:53;102225.97;;;15.05;60.48
51313;BME280;37397;53.226;10.400;2023-05-25T09:15:20;102224.22;;;15.08;60.45
51313;BME280;37397;53.226;10.400;2023-05-25T09:17:47;102221.97;;;15.12;60.25
51313;BME280;37397;53.226;10.400;2023-05-25T09:20:13;102219.41;;;15.14;60.12
51313;BME280;37397;53.226;10.400;2023-05-25T09:22:42;102219.25;;;15.18;60.04
51313;BME280;37397;53.226;10.400;2023-05-25T09:25:09;102219.56;;;15.20;59.76
51313;BME280;37397;53.226;10.400;2023-05-25T09:27:36;102221.16;;;15.21;59.40
51313;BME280;37397;53.226;10.400;2023-05-25T09:30:05;102225.47;;;15.25;59.48
51313;BME280;37397;53.226;10.400;2023-05-25T09:32:32;102217.16;;;15.27;59.28
51313;BME280;37397;53.226;10.400;2023-05-25T09:35:09;102220.69;;;15.31;59.17
51313;BME280;37397;53.226;10.400;2023-05-25T09:37:36;102223.56;;;15.31;59.25
51313;BME280;37397;53.226;10.400;2023-05-25T09:40:04;102225.47;;;15.35;59.19
51313;BME280;37397;53.226;10.400;2023-05-25T09:42:32;102224.84;;;15.40;59.08
51313;BME280;37397;53.226;10.400;2023-05-25T09:44:59;102225.13;;;15.42;58.63
51313;BME280;37397;53.226;10.400;2023-05-25T09:47:26;102223.88;;;15.43;58.74
51313;BME280;37397;53.226;10.400;2023-05-25T09:49:53;102227.38;;;15.47;58.36
51313;BME280;37397;53.226;10.400;2023-05-25T09:52:21;102226.09;;;15.48;58.36
51313;BME280;37397;53.226;10.400;2023-05-25T09:54:49;102229.13;;;15.54;58.29
51313;BME280;37397;53.226;10.400;2023-05-25T09:57:19;102223.38;;;15.54;58.41
51313;BME280;37397;53.226;10.400;2023-05-25T09:59:46;102222.88;;;15.55;58.29
51313;BME280;37397;53.226;10.400;2023-05-25T10:02:13;102224.31;;;15.60;58.23
51313;BME280;37397;53.226;10.400;2023-05-25T10:04:41;102229.56;;;15.61;58.11
51313;BME280;37397;53.226;10.400;2023-05-25T10:07:08;102235.97;;;15.65;57.98
51313;BME280;37397;53.226;10.400;2023-05-25T10:09:39;102233.72;;;15.69;57.81
51313;BME280;37397;53.226;10.400;2023-05-25T10:12:07;102241.38;;;15.73;57.85
51313;BME280;37397;53.226;10.400;2023-05-25T10:14:36;102234.66;;;15.76;57.55
51313;BME280;37397;53.226;10.400;2023-05-25T10:17:05;102248.59;;;15.77;57.57
51313;BME280;37397;53.226;10.400;2023-05-25T10:19:37;102250.22;;;15.78;56.90
51313;BME280;37397;53.226;10.400;2023-05-25T10:22:25;102248.13;;;15.79;55.79
51313;BME280;37397;53.226;10.400;2023-05-25T10:27:43;102250.34;;;15.84;56.07
51313;BME280;37397;53.226;10.400;2023-05-25T10:30:13;102243.13;;;15.89;56.49
51313;BME280;37397;53.226;10.400;2023-05-25T10:32:41;102259.13;;;15.90;56.54
51313;BME280;37397;53.226;10.400;2023-05-25T10:35:10;102258.66;;;15.91;56.48
51313;BME280;37397;53.226;10.400;2023-05-25T10:37:37;102247.75;;;15.95;56.24
51313;BME280;37397;53.226;10.400;2023-05-25T10:40:06;102243.28;;;15.94;56.32
51313;BME280;37397;53.226;10.400;2023-05-25T10:42:34;102248.88;;;15.98;55.92
51313;BME280;37397;53.226;10.400;2023-05-25T10:45:07;102248.38;;;15.99;55.13
51313;BME280;37397;53.226;10.400;2023-05-25T10:47:38;102247.41;;;16.02;54.96
51313;BME280;37397;53.226;10.400;2023-05-25T10:50:22;102249.81;;;16.04;54.31
51313;BME280;37397;53.226;10.400;2023-05-25T10:52:59;102244.84;;;16.04;54.28
51313;BME280;37397;53.226;10.400;2023-05-25T10:55:27;102235.72;;;16.06;54.52
51313;BME280;37397;53.226;10.400;2023-05-25T10:58:26;102247.41;;;16.02;53.90
51313;BME280;37397;53.226;10.400;2023-05-25T11:01:07;102237.00;;;16.05;54.04
51313;BME280;37397;53.226;10.400;2023-05-25T11:08:57;102230.59;;;16.10;53.92
51313;BME280;37397;53.226;10.400;2023-05-25T11:17:16;102227.22;;;16.12;52.20
51313;BME280;37397;53.226;10.400;2023-05-25T11:19:47;102220.50;;;16.15;52.44
51313;BME280;37397;53.226;10.400;2023-05-25T11:22:19;102231.84;;;16.18;52.58
51313;BME280;37397;53.226;10.400;2023-05-25T11:24:47;102237.59;;;16.18;52.32
51313;BME280;37397;53.226;10.400;2023-05-25T11:27:14;102231.34;;;16.20;51.79
51313;BME280;37397;53.226;10.400;2023-05-25T11:29:40;102222.22;;;16.21;51.71
51313;BME280;37397;53.226;10.400;2023-05-25T11:32:11;102228.28;;;16.23;51.73
51313;BME280;37397;53.226;10.400;2023-05-25T11:34:39;102225.88;;;16.22;52.36
51313;BME280;37397;53.226;10.400;2023-05-25T11:37:16;102223.66;;;16.26;52.20
51313;BME280;37397;53.226;10.400;2023-05-25T11:39:46;102221.09;;;16.19;51.95
51313;BME280;37397;53.226;10.400;2023-05-25T11:42:14;102215.50;;;16.25;52.76
51313;BME280;37397;53.226;10.400;2023-05-25T11:44:42;102227.78;;;16.25;52.02
51313;BME280;37397;53.226;10.400;2023-05-25T11:47:10;102230.00;;;16.30;51.97
51313;BME280;37397;53.226;10.400;2023-05-25T11:49:41;102225.03;;;16.31;51.34
51313;BME280;37397;53.226;10.400;2023-05-25T11:52:09;102224.88;;;16.34;51.28
51313;BME280;37397;53.226;10.400;2023-05-25T11:54:36;102223.56;;;16.35;51.28
51313;BME280;37397;53.226;10.400;2023-05-25T11:57:03;102218.13;;;16.37;51.56
51313;BME280;37397;53.226;10.400;2023-05-25T11:59:30;102229.97;;;16.39;51.43
51313;BME280;37397;53.226;10.400;2023-05-25T12:02:03;102212.69;;;16.39;50.88
51313;BME280;37397;53.226;10.400;2023-05-25T12:04:30;102220.03;;;16.40;50.09
51313;BME280;37397;53.226;10.400;2023-05-25T12:07:05;102215.84;;;16.41;49.11
51313;BME280;37397;53.226;10.400;2023-05-25T12:09:33;102201.75;;;16.44;49.23
51313;BME280;37397;53.226;10.400;2023-05-25T12:12:02;102208.94;;;16.48;49.43
51313;BME280;37397;53.226;10.400;2023-05-25T12:14:29;102199.78;;;16.50;49.70
51313;BME280;37397;53.226;10.400;2023-05-25T12:16:56;102206.69;;;16.52;50.32
51313;BME280;37397;53.226;10.400;2023-05-25T12:19:23;102200.44;;;16.54;50.55
51313;BME280;37397;53.226;10.400;2023-05-25T12:21:49;102202.63;;;16.59;50.90
51313;BME280;37397;53.226;10.400;2023-05-25T12:24:17;102209.03;;;16.63;51.04
51313;BME280;37397;53.226;10.400;2023-05-25T12:26:51;102196.66;;;16.63;50.74
51313;BME280;37397;53.226;10.400;2023-05-25T12:29:23;102198.09;;;16.67;51.04
51313;BME280;37397;53.226;10.400;2023-05-25T12:31:50;102197.88;;;16.71;50.93
51313;BME280;37397;53.226;10.400;2023-05-25T12:34:18;102197.72;;;16.74;50.83
51313;BME280;37397;53.226;10.400;2023-05-25T12:36:50;102204.56;;;16.77;50.21
51313;BME280;37397;53.226;10.400;2023-05-25T12:41:58;102201.81;;;16.83;49.64
51313;BME280;37397;53.226;10.400;2023-05-25T12:44:32;102208.72;;;16.85;49.41
51313;BME280;37397;53.226;10.400;2023-05-25T12:49:37;102196.81;;;16.92;50.20
51313;BME280;37397;53.226;10.400;2023-05-25T12:52:04;102196.63;;;16.96;50.28
51313;BME280;37397;53.226;10.400;2023-05-25T12:54:38;102194.03;;;16.98;50.70
51313;BME280;37397;53.226;10.400;2023-05-25T12:57:08;102204.88;;;17.03;50.55
51313;BME280;37397;53.226;10.400;2023-05-25T12:59:35;102195.22;;;17.06;50.88
51313;BME280;37397;53.226;10.400;2023-05-25T13:02:04;102201.81;;;17.07;50.74
51313;BME280;37397;53.226;10.400;2023-05-25T13:04:31;102194.88;;;17.13;50.85
51313;BME280;37397;53.226;10.400;2023-05-25T13:06:58;102202.22;;;17.14;51.00
51313;BME280;37397;53.226;10.400;2023-05-25T13:09:25;102197.53;;;17.17;50.65
51313;BME280;37397;53.226;10.400;2023-05-25T13:11:55;102183.91;;;17.18;50.83